createdAt,value
2022-08-26T00:01:10.487Z,74.92
2022-08-26T00:03:37.121Z,75.54
2022-08-26T00:06:03.756Z,75.04
2022-08-26T00:08:30.196Z,74.40
2022-08-26T00:10:56.824Z,74.09
2022-08-26T00:13:26.330Z,74.84
2022-08-26T00:15:52.912Z,75.20
2022-08-26T00:18:22.286Z,75.02
2022-08-26T00:20:49.251Z,75.52
2022-08-26T00:23:15.791Z,75.15
2022-08-26T00:25:42.730Z,75.50
2022-08-26T00:28:09.612Z,75.47
2022-08-26T00:30:38.021Z,76.02
2022-08-26T00:33:06.129Z,75.97
2022-08-26T00:35:34.769Z,76.59
2022-08-26T00:38:02.920Z,76.76
2022-08-26T00:40:34.716Z,76.64
2022-08-26T00:43:02.588Z,77.16
2022-08-26T00:45:42.096Z,77.31
2022-08-26T00:48:10.115Z,76.99
2022-08-26T00:50:41.811Z,76.80
2022-08-26T00:53:21.540Z,76.68
2022-08-26T00:55:57.896Z,77.06
2022-08-26T00:58:26.904Z,77.24
2022-08-26T01:00:54.078Z,77.49
2022-08-26T01:03:25.516Z,78.14
2022-08-26T01:05:56.971Z,78.90
2022-08-26T01:08:24.760Z,78.46
2022-08-26T01:10:54.922Z,78.14
2022-08-26T01:13:23.056Z,77.42
2022-08-26T01:15:55.889Z,76.90
2022-08-26T01:18:23.260Z,76.68
2022-08-26T01:21:02.884Z,78.06
2022-08-26T01:23:33.728Z,78.29
2022-08-26T01:26:05.132Z,78.34
2022-08-26T01:28:33.780Z,78.58
2022-08-26T01:31:03.865Z,78.54
2022-08-26T01:33:42.569Z,78.38
2022-08-26T01:36:10.879Z,78.50
2022-08-26T01:38:37.452Z,78.27
2022-08-26T01:41:04.992Z,78.68
2022-08-26T01:43:45.932Z,78.81
2022-08-26T01:46:14.548Z,80.06
2022-08-26T01:48:44.040Z,80.57
2022-08-26T01:51:13.902Z,80.19
2022-08-26T01:53:42.097Z,80.17
2022-08-26T01:56:12.959Z,80.36
2022-08-26T01:58:52.249Z,79.71
2022-08-26T02:01:19.964Z,79.35
2022-08-26T02:04:17.632Z,80.17
2022-08-26T02:06:45.036Z,78.93
2022-08-26T02:09:12.603Z,78.45
2022-08-26T02:11:41.514Z,80.14
2022-08-26T02:14:24.497Z,80.31
2022-08-26T02:16:55.310Z,79.99
2022-08-26T02:19:29.365Z,80.01
2022-08-26T02:21:59.577Z,80.09
2022-08-26T02:24:29.839Z,81.45
2022-08-26T02:26:58.080Z,81.88
2022-08-26T02:29:29.133Z,82.23
2022-08-26T02:31:57.889Z,82.30
2022-08-26T02:34:31.326Z,82.55
2022-08-26T02:37:00.030Z,81.93
2022-08-26T02:39:27.283Z,81.87
2022-08-26T02:41:55.064Z,82.15
2022-08-26T02:44:21.493Z,82.64
2022-08-26T02:46:48.275Z,82.47
2022-08-26T02:49:17.138Z,81.91
2022-08-26T02:51:43.818Z,82.19
2022-08-26T02:54:10.402Z,82.47
2022-08-26T02:56:37.421Z,82.45
2022-08-26T02:59:04.120Z,82.67
2022-08-26T03:01:34.208Z,82.61
2022-08-26T03:04:02.588Z,83.33
2022-08-26T03:06:29.712Z,83.38
2022-08-26T03:08:56.388Z,82.95
2022-08-26T03:11:23.763Z,83.41
2022-08-26T03:13:51.830Z,83.29
2022-08-26T03:16:18.855Z,82.90
2022-08-26T03:18:52.106Z,82.95
2022-08-26T03:21:19.725Z,82.66
2022-08-26T03:23:46.507Z,84.08
2022-08-26T03:26:14.835Z,84.03
2022-08-26T03:29:01.714Z,84.33
2022-08-26T03:31:29.623Z,84.55
2022-08-26T03:33:59.577Z,85.36
2022-08-26T03:36:27.132Z,85.07
2022-08-26T03:38:53.775Z,85.17
2022-08-26T03:41:21.260Z,85.88
2022-08-26T03:43:50.630Z,85.04
2022-08-26T03:46:18.640Z,85.01
2022-08-26T03:48:45.718Z,85.29
2022-08-26T03:51:15.101Z,84.00
2022-08-26T03:53:45.373Z,83.96
2022-08-26T03:56:11.769Z,84.10
2022-08-26T03:58:38.751Z,85.17
2022-08-26T04:01:09.187Z,86.59
2022-08-26T04:03:54.247Z,85.13
2022-08-26T04:06:20.707Z,85.38
2022-08-26T04:08:48.141Z,85.87
2022-08-26T04:11:22.779Z,85.99
2022-08-26T04:13:50.319Z,86.19
2022-08-26T04:16:17.974Z,85.59
2022-08-26T04:18:46.893Z,85.40
2022-08-26T04:21:18.247Z,85.32
2022-08-26T04:23:47.305Z,85.85
2022-08-26T04:26:15.094Z,85.45
2022-08-26T04:28:41.711Z,85.24
2022-08-26T04:31:12.427Z,85.83
2022-08-26T04:33:41.770Z,81.64
2022-08-26T04:36:09.207Z,84.25
2022-08-26T04:38:36.455Z,84.75
2022-08-26T04:41:05.561Z,84.46
2022-08-26T04:43:41.710Z,85.17
2022-08-26T04:46:09.447Z,84.75
2022-08-26T04:48:40.806Z,84.92
2022-08-26T04:51:07.364Z,85.05
2022-08-26T04:53:34.777Z,84.80
2022-08-26T04:56:01.702Z,85.56
2022-08-26T04:58:30.970Z,86.12
2022-08-26T05:00:58.371Z,85.78
2022-08-26T05:03:27.038Z,85.74
2022-08-26T05:05:54.395Z,85.83
2022-08-26T05:08:22.536Z,86.27
2022-08-26T05:10:54.145Z,87.29
2022-08-26T05:13:21.082Z,86.30
2022-08-26T05:15:48.881Z,85.32
2022-08-26T05:18:17.759Z,84.63
2022-08-26T05:20:50.245Z,84.54
2022-08-26T05:23:17.643Z,83.68
2022-08-26T05:25:46.973Z,83.06
2022-08-26T05:28:16.125Z,82.41
2022-08-26T05:30:44.469Z,80.40
2022-08-26T05:33:12.079Z,80.65
2022-08-26T05:35:39.133Z,80.26
2022-08-26T05:38:12.410Z,79.74
2022-08-26T05:40:44.350Z,77.42
2022-08-26T05:43:11.998Z,76.49
2022-08-26T05:45:45.920Z,75.27
2022-08-26T05:48:14.328Z,74.69
2022-08-26T05:50:43.276Z,73.40
2022-08-26T05:53:11.591Z,73.52
2022-08-26T05:55:45.627Z,73.13
2022-08-26T05:58:13.102Z,72.72
2022-08-26T06:00:40.354Z,73.47
2022-08-26T06:03:08.626Z,74.03
2022-08-26T06:05:39.320Z,74.34
2022-08-26T06:08:13.531Z,74.60
2022-08-26T06:11:01.421Z,79.03
2022-08-26T06:13:30.351Z,80.28
2022-08-26T06:16:00.005Z,79.84
2022-08-26T06:18:34.661Z,79.81
2022-08-26T06:21:22.132Z,76.85
2022-08-26T06:24:09.924Z,77.84
2022-08-26T06:26:37.107Z,77.93
2022-08-26T06:29:05.683Z,77.82
2022-08-26T06:31:33.808Z,77.25
2022-08-26T06:34:01.257Z,77.01
2022-08-26T06:36:30.608Z,77.99
2022-08-26T06:39:00.828Z,77.02
2022-08-26T06:41:27.438Z,76.90
2022-08-26T06:43:53.874Z,77.96
2022-08-26T06:46:21.693Z,78.57
2022-08-26T06:48:48.723Z,77.48
2022-08-26T06:51:17.957Z,77.97
2022-08-26T06:53:46.927Z,78.64
2022-08-26T06:56:18.822Z,79.23
2022-08-26T06:58:46.064Z,78.89
2022-08-26T07:01:24.300Z,77.74
2022-08-26T07:03:52.307Z,78.40
2022-08-26T07:06:21.600Z,78.50
2022-08-26T07:08:53.250Z,78.06
2022-08-26T07:11:20.872Z,78.31
2022-08-26T07:13:47.803Z,77.93
2022-08-26T07:16:17.458Z,77.31
2022-08-26T07:18:45.758Z,77.40
2022-08-26T07:21:15.539Z,76.82
2022-08-26T07:23:42.277Z,75.48
2022-08-26T07:26:12.057Z,75.56
2022-08-26T07:28:38.518Z,74.74
2022-08-26T07:31:07.444Z,74.65
2022-08-26T07:33:38.585Z,75.56
2022-08-26T07:36:07.975Z,73.99
2022-08-26T07:38:35.889Z,73.50
2022-08-26T07:41:02.779Z,73.33
2022-08-26T07:43:30.284Z,72.82
2022-08-26T07:45:57.221Z,72.25
2022-08-26T07:48:24.100Z,71.97
2022-08-26T07:50:52.572Z,72.40
2022-08-26T07:53:21.385Z,72.78
2022-08-26T07:55:48.515Z,71.58
2022-08-26T07:58:15.897Z,71.00
2022-08-26T08:00:42.412Z,72.19
2022-08-26T08:03:10.413Z,71.74
2022-08-26T08:05:38.026Z,71.18
2022-08-26T08:08:26.747Z,71.06
2022-08-26T08:10:55.546Z,70.54
2022-08-26T08:13:23.073Z,70.45
2022-08-26T08:15:50.528Z,71.61
2022-08-26T08:18:18.085Z,70.60
2022-08-26T08:20:59.273Z,69.82
2022-08-26T08:23:32.272Z,69.22
2022-08-26T08:26:04.207Z,69.46
2022-08-26T08:28:30.780Z,68.60
2022-08-26T08:30:57.825Z,68.44
2022-08-26T08:33:24.458Z,69.72
2022-08-26T08:35:50.925Z,68.73
2022-08-26T08:38:17.442Z,68.36
2022-08-26T08:40:45.494Z,68.59
2022-08-26T08:43:14.796Z,68.79
2022-08-26T08:45:50.739Z,67.79
2022-08-26T08:48:31.447Z,68.21
2022-08-26T08:51:08.336Z,67.62
2022-08-26T08:53:42.188Z,66.87
2022-08-26T08:56:23.734Z,67.08
2022-08-26T08:59:14.654Z,66.03
2022-08-26T09:02:13.275Z,65.94
2022-08-26T09:05:02.143Z,65.45
2022-08-26T09:07:48.090Z,65.43
2022-08-26T09:10:50.973Z,65.15
2022-08-26T09:13:25.287Z,64.89
2022-08-26T09:15:59.664Z,65.82
2022-08-26T09:18:47.504Z,65.96
2022-08-26T09:21:17.928Z,64.98
2022-08-26T09:23:49.339Z,64.06
2022-08-26T09:26:39.142Z,64.26
2022-08-26T09:29:13.648Z,63.31
2022-08-26T09:31:41.332Z,62.93
2022-08-26T09:34:17.345Z,63.93
2022-08-26T09:36:48.531Z,62.13
2022-08-26T09:39:24.027Z,62.96
2022-08-26T09:42:08.020Z,62.34
2022-08-26T09:44:56.799Z,61.74
2022-08-26T09:47:30.101Z,60.96
2022-08-26T09:50:09.917Z,61.13
2022-08-26T09:52:40.494Z,59.57
2022-08-26T09:55:23.088Z,59.29
2022-08-26T09:57:52.864Z,60.30
2022-08-26T10:00:39.504Z,59.14
2022-08-26T10:03:10.658Z,59.63
2022-08-26T10:05:41.277Z,58.40
2022-08-26T10:08:33.251Z,58.09
2022-08-26T10:11:04.381Z,58.16
2022-08-26T10:13:31.177Z,59.04
2022-08-26T10:16:10.761Z,57.87
2022-08-26T10:18:42.977Z,57.25
2022-08-26T10:21:18.037Z,55.50
2022-08-26T10:23:51.697Z,55.95
2022-08-26T10:26:26.547Z,56.03
2022-08-26T10:29:08.900Z,56.50
2022-08-26T10:31:44.412Z,56.32
2022-08-26T10:34:12.476Z,55.38
2022-08-26T10:39:46.012Z,56.08
2022-08-26T10:42:32.248Z,56.19
2022-08-26T10:45:14.994Z,56.17
2022-08-26T10:47:54.088Z,54.25
2022-08-26T10:50:24.755Z,53.51
2022-08-26T10:53:05.811Z,53.75
2022-08-26T10:55:49.039Z,54.47
2022-08-26T10:58:27.666Z,54.30
2022-08-26T11:01:33.848Z,54.99
2022-08-26T11:04:16.820Z,53.55
2022-08-26T11:06:46.007Z,52.86
2022-08-26T11:09:45.048Z,52.84
2022-08-26T11:12:42.031Z,52.25
2022-08-26T11:15:36.855Z,51.85
2022-08-26T11:18:09.490Z,52.32
2022-08-26T11:20:41.898Z,51.95
2022-08-26T11:23:20.608Z,50.36
2022-08-26T11:25:56.938Z,50.82
2022-08-26T11:28:34.592Z,50.20
2022-08-26T11:31:01.668Z,50.38
2022-08-26T11:33:43.819Z,51.32
2022-08-26T11:36:25.966Z,52.35
2022-08-26T11:38:54.664Z,52.26
2022-08-26T11:41:22.897Z,52.54
2022-08-26T11:43:52.162Z,52.88
2022-08-26T11:46:28.246Z,52.09
2022-08-26T11:49:05.133Z,52.34
2022-08-26T11:51:35.969Z,51.32
2022-08-26T11:54:30.547Z,50.83
2022-08-26T11:57:09.285Z,50.47
2022-08-26T11:59:39.075Z,50.16
2022-08-26T12:02:15.272Z,49.96
2022-08-26T12:04:46.274Z,49.70
2022-08-26T12:07:13.353Z,49.62
2022-08-26T12:09:56.427Z,49.79
2022-08-26T12:12:42.434Z,49.38
2022-08-26T12:15:22.662Z,48.83
2022-08-26T12:17:54.653Z,48.24
2022-08-26T12:20:48.536Z,48.35
2022-08-26T12:23:24.756Z,47.69
2022-08-26T12:25:54.060Z,47.12
2022-08-26T12:28:21.726Z,48.63
2022-08-26T12:31:04.166Z,47.77
2022-08-26T12:33:33.927Z,48.78
2022-08-26T12:36:01.946Z,48.24
2022-08-26T12:38:29.794Z,48.47
2022-08-26T12:40:57.070Z,48.45
2022-08-26T12:43:56.640Z,48.26
2022-08-26T12:46:28.254Z,48.19
2022-08-26T12:48:54.974Z,48.21
2022-08-26T12:51:28.245Z,48.53
2022-08-26T12:53:55.477Z,48.79
2022-08-26T12:56:42.990Z,49.45
2022-08-26T12:59:23.142Z,49.97
2022-08-26T13:01:50.483Z,47.55
2022-08-26T13:04:35.788Z,47.46
2022-08-26T13:07:21.655Z,47.84
2022-08-26T13:09:50.462Z,48.58
2022-08-26T13:12:28.770Z,48.96
2022-08-26T13:14:55.764Z,49.57
2022-08-26T13:17:22.181Z,49.51
2022-08-26T13:19:48.608Z,49.85
2022-08-26T13:22:18.997Z,49.88
2022-08-26T13:24:45.728Z,50.02
2022-08-26T13:27:14.856Z,47.88
2022-08-26T13:29:41.534Z,48.84
2022-08-26T13:32:09.131Z,49.59
2022-08-26T13:34:37.428Z,50.43
2022-08-26T13:37:04.698Z,51.73
2022-08-26T13:39:31.229Z,51.30
2022-08-26T13:41:57.724Z,51.67
2022-08-26T13:44:24.437Z,52.61
2022-08-26T13:46:51.136Z,51.22
2022-08-26T13:49:17.647Z,50.53
2022-08-26T13:51:44.161Z,49.91
2022-08-26T13:54:10.645Z,49.83
2022-08-26T13:56:37.390Z,49.48
2022-08-26T13:59:05.625Z,47.59
2022-08-26T14:01:34.178Z,47.25
2022-08-26T14:04:00.677Z,45.77
2022-08-26T14:06:27.208Z,46.55
2022-08-26T14:08:53.657Z,50.71
2022-08-26T14:11:21.291Z,51.12
2022-08-26T14:13:47.842Z,51.67
2022-08-26T14:16:24.190Z,51.59
2022-08-26T14:18:51.119Z,52.57
2022-08-26T14:21:18.135Z,53.34
2022-08-26T14:23:44.746Z,53.66
2022-08-26T14:26:14.287Z,54.14
2022-08-26T14:28:55.952Z,54.19
2022-08-26T14:31:23.757Z,54.61
2022-08-26T14:33:50.578Z,55.76
2022-08-26T14:36:29.078Z,56.45
2022-08-26T14:38:58.133Z,56.40
2022-08-26T14:41:25.360Z,56.89
2022-08-26T14:44:00.178Z,57.82
2022-08-26T14:46:30.245Z,57.00
2022-08-26T14:49:01.047Z,57.35
2022-08-26T14:51:30.239Z,59.06
2022-08-26T14:54:11.752Z,59.91
2022-08-26T14:56:48.875Z,60.98
2022-08-26T14:59:18.613Z,60.23
2022-08-26T15:01:45.508Z,61.04
2022-08-26T15:04:12.340Z,61.33
2022-08-26T15:06:39.418Z,62.40
2022-08-26T15:09:06.055Z,62.55
2022-08-26T15:11:32.932Z,62.20
2022-08-26T15:13:59.884Z,62.94
2022-08-26T15:16:28.886Z,62.37
2022-08-26T15:18:55.889Z,62.75
2022-08-26T15:21:23.208Z,63.44
2022-08-26T15:23:50.395Z,63.66
2022-08-26T15:26:18.139Z,63.76
2022-08-26T15:28:45.148Z,63.83
2022-08-26T15:31:12.046Z,63.46
2022-08-26T15:33:39.174Z,63.99
2022-08-26T15:36:07.768Z,64.18
2022-08-26T15:38:37.357Z,65.65
2022-08-26T15:41:05.691Z,65.73
2022-08-26T15:43:32.536Z,65.91
2022-08-26T15:45:59.257Z,66.37
2022-08-26T15:48:25.753Z,66.29
2022-08-26T15:51:00.196Z,67.12
2022-08-26T15:53:29.486Z,67.46
2022-08-26T15:55:56.734Z,67.18
2022-08-26T15:58:24.964Z,67.18
2022-08-26T16:00:54.325Z,67.32
2022-08-26T16:03:20.847Z,67.29
2022-08-26T16:05:48.076Z,66.98
2022-08-26T16:08:15.393Z,67.32
2022-08-26T16:10:49.951Z,67.10
2022-08-26T16:13:18.709Z,66.79
2022-08-26T16:15:46.095Z,66.44
2022-08-26T16:18:13.851Z,66.76
2022-08-26T16:20:51.473Z,66.54
2022-08-26T16:23:35.932Z,66.49
2022-08-26T16:26:10.838Z,66.34
2022-08-26T16:28:38.368Z,66.52
2022-08-26T16:31:06.175Z,67.18
2022-08-26T16:33:32.736Z,67.46
2022-08-26T16:35:59.132Z,67.31
2022-08-26T16:38:25.616Z,67.22
2022-08-26T16:40:52.035Z,67.82
2022-08-26T16:43:18.454Z,67.33
2022-08-26T16:45:44.925Z,67.27
2022-08-26T16:48:11.455Z,67.45
2022-08-26T16:50:40.552Z,67.25
2022-08-26T16:53:07.349Z,67.58
2022-08-26T16:55:35.262Z,67.26
2022-08-26T16:58:02.180Z,68.03
2022-08-26T17:00:31.166Z,67.46
2022-08-26T17:02:59.753Z,67.91
2022-08-26T17:05:27.637Z,68.14
2022-08-26T17:07:59.437Z,68.81
2022-08-26T17:10:27.735Z,69.30
2022-08-26T17:12:54.832Z,69.57
2022-08-26T17:15:23.666Z,70.14
2022-08-26T17:17:54.213Z,70.06
2022-08-26T17:20:22.625Z,71.27
2022-08-26T17:22:51.536Z,70.51
2022-08-26T17:25:21.889Z,71.57
2022-08-26T17:27:48.726Z,71.33
2022-08-26T17:30:16.448Z,70.78
2022-08-26T17:32:43.426Z,71.47
2022-08-26T17:35:13.034Z,71.84
2022-08-26T17:37:40.267Z,72.30
2022-08-26T17:40:09.853Z,71.76
2022-08-26T17:42:40.708Z,72.16
2022-08-26T17:45:08.437Z,73.47
2022-08-26T17:47:34.948Z,73.56
2022-08-26T17:50:02.257Z,74.23
2022-08-26T17:52:29.281Z,73.47
2022-08-26T17:54:56.828Z,74.15
2022-08-26T17:57:24.774Z,73.58
2022-08-26T17:59:52.776Z,74.27
2022-08-26T18:02:20.919Z,74.63
2022-08-26T18:04:47.438Z,75.03
2022-08-26T18:07:14.468Z,75.17
2022-08-26T18:09:40.900Z,75.32
2022-08-26T18:12:07.863Z,75.46
2022-08-26T18:14:34.355Z,75.40
2022-08-26T18:17:01.430Z,75.02
2022-08-26T18:19:29.352Z,74.41
2022-08-26T18:21:55.918Z,75.82
2022-08-26T18:24:22.449Z,75.33
2022-08-26T18:26:50.791Z,75.70
2022-08-26T18:29:19.294Z,75.56
2022-08-26T18:31:45.801Z,74.59
2022-08-26T18:34:12.844Z,76.35
2022-08-26T18:36:42.579Z,75.76
2022-08-26T18:39:10.562Z,75.47
2022-08-26T18:41:45.812Z,75.59
2022-08-26T18:44:14.204Z,76.10
2022-08-26T18:46:41.136Z,76.75
2022-08-26T18:49:08.282Z,77.03
2022-08-26T18:51:35.306Z,77.60
2022-08-26T18:54:05.348Z,77.67
2022-08-26T18:56:35.513Z,77.85
2022-08-26T18:59:03.308Z,77.54
2022-08-26T19:01:30.991Z,77.02
2022-08-26T19:03:59.524Z,75.77
2022-08-26T19:06:28.143Z,75.48
2022-08-26T19:08:54.981Z,75.02
2022-08-26T19:11:31.213Z,74.78
2022-08-26T19:13:58.595Z,75.30
2022-08-26T19:16:26.883Z,76.63
2022-08-26T19:18:54.440Z,76.11
2022-08-26T19:21:22.460Z,76.16
2022-08-26T19:23:49.847Z,75.66
2022-08-26T19:26:16.784Z,76.45
2022-08-26T19:28:43.358Z,75.94
2022-08-26T19:31:11.693Z,76.62
2022-08-26T19:33:43.001Z,76.66
2022-08-26T19:36:15.014Z,77.48
2022-08-26T19:38:42.716Z,77.09
2022-08-26T19:41:18.164Z,77.71
2022-08-26T19:43:46.271Z,77.79
2022-08-26T19:46:19.907Z,77.28
2022-08-26T19:48:47.369Z,78.85
2022-08-26T19:51:20.158Z,77.70
2022-08-26T19:53:48.204Z,78.80
2022-08-26T19:56:15.247Z,79.30
2022-08-26T19:58:42.150Z,78.71
2022-08-26T20:01:08.888Z,79.27
2022-08-26T20:03:36.054Z,79.57
2022-08-26T20:06:05.126Z,80.37
2022-08-26T20:08:32.532Z,80.26
2022-08-26T20:11:04.804Z,80.43
2022-08-26T20:13:32.303Z,80.96
2022-08-26T20:15:58.938Z,80.36
2022-08-26T20:18:44.060Z,80.50
2022-08-26T20:21:29.394Z,79.91
2022-08-26T20:24:01.990Z,79.71
2022-08-26T20:26:31.027Z,80.34
2022-08-26T20:28:57.832Z,79.23
2022-08-26T20:31:25.669Z,80.40
2022-08-26T20:33:52.740Z,79.88
2022-08-26T20:36:22.515Z,80.36
2022-08-26T20:38:50.224Z,82.20
2022-08-26T20:41:16.950Z,81.08
2022-08-26T20:43:44.385Z,82.29
2022-08-26T20:46:18.155Z,83.65
2022-08-26T20:48:47.899Z,83.71
2022-08-26T20:51:15.041Z,83.58
2022-08-26T20:53:41.583Z,84.13
2022-08-26T20:56:10.159Z,84.44
2022-08-26T20:58:37.557Z,84.37
2022-08-26T21:01:07.984Z,85.46
2022-08-26T21:03:36.136Z,85.63
2022-08-26T21:06:03.726Z,85.13
2022-08-26T21:08:33.156Z,85.31
2022-08-26T21:11:00.952Z,86.00
2022-08-26T21:13:35.755Z,85.70
2022-08-26T21:16:10.410Z,85.95
2022-08-26T21:18:36.922Z,87.06
2022-08-26T21:21:08.189Z,88.06
2022-08-26T21:23:36.057Z,87.76
2022-08-26T21:26:04.952Z,87.81
2022-08-26T21:28:31.699Z,88.66
2022-08-26T21:30:58.169Z,88.71
2022-08-26T21:33:24.597Z,87.39
2022-08-26T21:35:55.855Z,88.14
2022-08-26T21:38:22.599Z,88.21
2022-08-26T21:41:02.337Z,88.94
2022-08-26T21:43:35.348Z,87.57
2022-08-26T21:46:11.370Z,89.04
2022-08-26T21:48:39.487Z,88.11
2022-08-26T21:51:06.306Z,88.84
2022-08-26T21:53:32.709Z,89.10
2022-08-26T21:55:59.151Z,89.13
2022-08-26T21:58:25.568Z,89.06
2022-08-26T22:00:52.260Z,89.31
2022-08-26T22:03:18.679Z,88.30
2022-08-26T22:05:50.395Z,89.14
2022-08-26T22:08:23.406Z,88.72
2022-08-26T22:10:54.985Z,88.91
2022-08-26T22:13:25.761Z,87.90
2022-08-26T22:15:52.186Z,88.95
2022-08-26T22:18:21.123Z,88.10
2022-08-26T22:20:47.909Z,88.41
2022-08-26T22:23:14.342Z,89.11
2022-08-26T22:25:44.271Z,88.94
2022-08-26T22:28:10.863Z,87.75
2022-08-26T22:30:38.004Z,87.75
2022-08-26T22:33:05.533Z,88.32
2022-08-26T22:35:32.043Z,89.07
2022-08-26T22:37:59.222Z,88.21
2022-08-26T22:40:25.747Z,88.14
2022-08-26T22:42:55.704Z,88.13
2022-08-26T22:45:27.370Z,87.37
2022-08-26T22:47:53.858Z,88.42
2022-08-26T22:50:20.292Z,88.84
2022-08-26T22:52:46.802Z,88.28
2022-08-26T22:55:13.258Z,88.31
2022-08-26T22:57:39.790Z,87.57
2022-08-26T23:00:06.968Z,87.64
2022-08-26T23:02:38.339Z,87.22
2022-08-26T23:05:06.193Z,87.63
2022-08-26T23:07:33.251Z,86.84
2022-08-26T23:09:59.835Z,87.37
2022-08-26T23:12:27.511Z,87.71
2022-08-26T23:14:53.916Z,88.19
2022-08-26T23:17:21.318Z,87.38
2022-08-26T23:19:47.726Z,87.51
2022-08-26T23:22:14.317Z,87.10
2022-08-26T23:24:40.745Z,86.56
2022-08-26T23:27:07.252Z,86.74
2022-08-26T23:29:35.586Z,86.92
2022-08-26T23:32:04.153Z,86.23
2022-08-26T23:34:49.107Z,87.38
2022-08-26T23:37:15.600Z,86.61
2022-08-26T23:39:42.086Z,86.25
2022-08-26T23:42:08.547Z,86.73
2022-08-26T23:44:35.005Z,87.06
2022-08-26T23:47:01.653Z,86.18
2022-08-26T23:49:28.757Z,87.58
2022-08-26T23:52:13.944Z,87.60
2022-08-26T23:54:40.538Z,87.37
2022-08-26T23:57:07.609Z,87.12
2022-08-26T23:59:34.208Z,86.80
